sensor_id;sensor_type;location;lat;lon;timestamp;pressure;altitude;pressure_sealevel;temperature;humidity
58757;BME280;44527;47.460;19.016;2023-11-18T00:00:15;100175.41;;;4.19;91.12
58757;BME280;44527;47.460;19.016;2023-11-18T00:03:20;100189.25;;;4.20;91.10
58757;BME280;44527;47.460;19.016;2023-11-18T00:06:23;100185.75;;;4.21;90.67
58757;BME280;44527;47.460;19.016;2023-11-18T00:09:26;100186.78;;;4.17;91.58
58757;BME280;44527;47.460;19.016;2023-11-18T00:12:28;100179.13;;;4.13;91.50
58757;BME280;44527;47.460;19.016;2023-11-18T00:15:31;100186.94;;;4.13;91.20
58757;BME280;44527;47.460;19.016;2023-11-18T00:18:36;100192.00;;;4.17;90.53
58757;BME280;44527;47.460;19.016;2023-11-18T00:21:39;100204.72;;;4.23;89.91
58757;BME280;44527;47.460;19.016;2023-11-18T00:24:42;100201.47;;;4.18;90.83
58757;BME280;44527;47.460;19.016;2023-11-18T00:27:46;100205.88;;;4.15;91.29
58757;BME280;44527;47.460;19.016;2023-11-18T00:30:50;100202.44;;;4.15;91.26
58757;BME280;44527;47.460;19.016;2023-11-18T00:33:53;100193.66;;;4.18;91.57
58757;BME280;44527;47.460;19.016;2023-11-18T00:36:56;100199.91;;;4.13;90.66
58757;BME280;44527;47.460;19.016;2023-11-18T00:40:02;100205.16;;;4.12;90.47
58757;BME280;44527;47.460;19.016;2023-11-18T00:43:05;100225.75;;;4.17;90.36
58757;BME280;44527;47.460;19.016;2023-11-18T00:46:08;100207.56;;;4.17;90.40
58757;BME280;44527;47.460;19.016;2023-11-18T00:49:11;100218.59;;;4.22;90.16
58757;BME280;44527;47.460;19.016;2023-11-18T00:52:14;100215.03;;;4.24;90.55
58757;BME280;44527;47.460;19.016;2023-11-18T00:55:17;100222.16;;;4.19;90.71
58757;BME280;44527;47.460;19.016;2023-11-18T00:58:22;100211.00;;;4.17;89.99
58757;BME280;44527;47.460;19.016;2023-11-18T01:01:25;100224.00;;;4.17;90.13
58757;BME280;44527;47.460;19.016;2023-11-18T01:04:28;100218.72;;;4.19;89.26
58757;BME280;44527;47.460;19.016;2023-11-18T01:07:30;100210.75;;;4.23;88.98
58757;BME280;44527;47.460;19.016;2023-11-18T01:10:34;100228.09;;;4.23;88.64
58757;BME280;44527;47.460;19.016;2023-11-18T01:13:39;100209.13;;;4.21;89.21
58757;BME280;44527;47.460;19.016;2023-11-18T01:16:42;100230.87;;;4.18;89.26
58757;BME280;44527;47.460;19.016;2023-11-18T01:19:46;100233.56;;;4.17;89.50
58757;BME280;44527;47.460;19.016;2023-11-18T01:22:49;100246.59;;;4.15;89.37
58757;BME280;44527;47.460;19.016;2023-11-18T01:25:51;100243.19;;;4.13;89.25
58757;BME280;44527;47.460;19.016;2023-11-18T01:28:54;100243.28;;;4.11;89.28
58757;BME280;44527;47.460;19.016;2023-11-18T01:31:58;100242.44;;;4.11;89.48
58757;BME280;44527;47.460;19.016;2023-11-18T01:35:01;100251.88;;;4.13;89.04
58757;BME280;44527;47.460;19.016;2023-11-18T01:38:03;100259.31;;;4.21;88.50
58757;BME280;44527;47.460;19.016;2023-11-18T01:41:08;100257.78;;;4.17;89.18
58757;BME280;44527;47.460;19.016;2023-11-18T01:44:11;100261.22;;;4.18;88.79
58757;BME280;44527;47.460;19.016;2023-11-18T01:47:16;100261.37;;;4.13;88.91
58757;BME280;44527;47.460;19.016;2023-11-18T01:50:19;100266.66;;;4.11;89.09
58757;BME280;44527;47.460;19.016;2023-11-18T01:53:23;100276.19;;;4.11;89.20
58757;BME280;44527;47.460;19.016;2023-11-18T01:56:27;100265.97;;;4.06;89.52
58757;BME280;44527;47.460;19.016;2023-11-18T01:59:30;100260.53;;;4.12;89.62
58757;BME280;44527;47.460;19.016;2023-11-18T02:02:35;100276.12;;;4.12;89.53
58757;BME280;44527;47.460;19.016;2023-11-18T02:05:40;100274.56;;;4.08;89.09
58757;BME280;44527;47.460;19.016;2023-11-18T02:08:44;100283.44;;;4.03;89.49
58757;BME280;44527;47.460;19.016;2023-11-18T02:15:00;100282.78;;;3.98;90.49
58757;BME280;44527;47.460;19.016;2023-11-18T02:18:06;100281.88;;;3.99;90.83
58757;BME280;44527;47.460;19.016;2023-11-18T02:21:13;100273.25;;;3.98;89.92
58757;BME280;44527;47.460;19.016;2023-11-18T02:24:27;100302.13;;;3.90;90.28
58757;BME280;44527;47.460;19.016;2023-11-18T02:27:33;100289.00;;;3.94;90.05
58757;BME280;44527;47.460;19.016;2023-11-18T02:30:36;100297.41;;;4.00;90.12
58757;BME280;44527;47.460;19.016;2023-11-18T02:33:46;100307.91;;;3.97;90.00
58757;BME280;44527;47.460;19.016;2023-11-18T02:36:53;100288.75;;;4.00;90.17
58757;BME280;44527;47.460;19.016;2023-11-18T02:40:04;100307.66;;;4.03;90.50
58757;BME280;44527;47.460;19.016;2023-11-18T02:43:30;100311.28;;;3.99;90.89
58757;BME280;44527;47.460;19.016;2023-11-18T02:46:33;100298.31;;;3.99;91.24
58757;BME280;44527;47.460;19.016;2023-11-18T02:49:37;100302.72;;;3.97;91.63
58757;BME280;44527;47.460;19.016;2023-11-18T02:52:40;100300.06;;;3.99;91.93
58757;BME280;44527;47.460;19.016;2023-11-18T02:55:42;100287.84;;;4.01;92.23
58757;BME280;44527;47.460;19.016;2023-11-18T02:58:45;100294.78;;;4.00;92.40
58757;BME280;44527;47.460;19.016;2023-11-18T03:01:47;100300.84;;;4.01;92.84
58757;BME280;44527;47.460;19.016;2023-11-18T03:04:51;100295.63;;;4.01;93.14
58757;BME280;44527;47.460;19.016;2023-11-18T03:07:53;100295.63;;;4.01;93.26
58757;BME280;44527;47.460;19.016;2023-11-18T03:11:00;100301.59;;;4.04;93.55
58757;BME280;44527;47.460;19.016;2023-11-18T03:14:03;100315.56;;;4.00;94.15
58757;BME280;44527;47.460;19.016;2023-11-18T03:17:08;100323.38;;;4.00;94.25
58757;BME280;44527;47.460;19.016;2023-11-18T03:20:12;100315.41;;;4.05;94.37
58757;BME280;44527;47.460;19.016;2023-11-18T03:23:17;100327.47;;;4.06;94.77
58757;BME280;44527;47.460;19.016;2023-11-18T03:26:20;100343.00;;;4.07;94.86
58757;BME280;44527;47.460;19.016;2023-11-18T03:29:23;100327.47;;;4.06;94.99
58757;BME280;44527;47.460;19.016;2023-11-18T03:32:26;100345.53;;;4.09;95.22
58757;BME280;44527;47.460;19.016;2023-11-18T03:53:23;100325.94;;;4.65;93.65
58757;BME280;44527;47.460;19.016;2023-11-18T03:56:26;100338.34;;;4.15;95.84
58757;BME280;44527;47.460;19.016;2023-11-18T03:59:32;100328.75;;;4.18;95.70
58757;BME280;44527;47.460;19.016;2023-11-18T04:02:35;100332.97;;;4.20;95.44
58757;BME280;44527;47.460;19.016;2023-11-18T04:05:39;100355.56;;;4.18;95.59
58757;BME280;44527;47.460;19.016;2023-11-18T04:08:48;100358.97;;;4.20;95.15
58757;BME280;44527;47.460;19.016;2023-11-18T04:11:52;100351.16;;;4.20;94.72
58757;BME280;44527;47.460;19.016;2023-11-18T04:14:54;100356.38;;;4.20;94.83
58757;BME280;44527;47.460;19.016;2023-11-18T04:17:57;100371.88;;;4.22;94.81
58757;BME280;44527;47.460;19.016;2023-11-18T04:20:59;100372.84;;;4.19;94.67
58757;BME280;44527;47.460;19.016;2023-11-18T04:24:02;100374.72;;;4.15;95.12
58757;BME280;44527;47.460;19.016;2023-11-18T04:27:05;100369.41;;;4.19;95.20
58757;BME280;44527;47.460;19.016;2023-11-18T04:30:08;100376.06;;;4.26;94.65
58757;BME280;44527;47.460;19.016;2023-11-18T04:33:11;100380.47;;;4.24;95.02
58757;BME280;44527;47.460;19.016;2023-11-18T04:36:16;100386.47;;;4.26;94.90
58757;BME280;44527;47.460;19.016;2023-11-18T04:39:19;100396.97;;;4.23;94.42
58757;BME280;44527;47.460;19.016;2023-11-18T04:42:23;100400.41;;;4.23;94.93
58757;BME280;44527;47.460;19.016;2023-11-18T04:45:26;100423.78;;;4.23;95.14
58757;BME280;44527;47.460;19.016;2023-11-18T04:48:29;100411.56;;;4.25;95.25
58757;BME280;44527;47.460;19.016;2023-11-18T04:51:31;100422.63;;;4.30;94.95
58757;BME280;44527;47.460;19.016;2023-11-18T04:54:35;100412.31;;;4.29;94.97
58757;BME280;44527;47.460;19.016;2023-11-18T04:57:38;100413.87;;;4.33;94.91
58757;BME280;44527;47.460;19.016;2023-11-18T05:00:41;100413.19;;;4.28;94.67
58757;BME280;44527;47.460;19.016;2023-11-18T05:03:44;100419.13;;;4.31;94.39
58757;BME280;44527;47.460;19.016;2023-11-18T05:06:48;100427.00;;;4.30;94.11
58757;BME280;44527;47.460;19.016;2023-11-18T05:09:51;100426.78;;;4.34;93.85
58757;BME280;44527;47.460;19.016;2023-11-18T05:12:53;100422.16;;;4.43;94.06
58757;BME280;44527;47.460;19.016;2023-11-18T05:15:58;100425.78;;;4.38;93.62
58757;BME280;44527;47.460;19.016;2023-11-18T05:19:01;100421.59;;;4.34;93.34
58757;BME280;44527;47.460;19.016;2023-11-18T05:22:06;100423.97;;;4.41;93.35
58757;BME280;44527;47.460;19.016;2023-11-18T05:25:09;100423.84;;;4.44;93.05
58757;BME280;44527;47.460;19.016;2023-11-18T05:28:12;100425.69;;;4.42;93.46
58757;BME280;44527;47.460;19.016;2023-11-18T05:31:16;100422.22;;;4.41;93.20
58757;BME280;44527;47.460;19.016;2023-11-18T05:34:19;100413.56;;;4.41;92.66
58757;BME280;44527;47.460;19.016;2023-11-18T05:37:24;100420.53;;;4.40;92.76
58757;BME280;44527;47.460;19.016;2023-11-18T05:40:26;100409.13;;;4.44;91.93
58757;BME280;44527;47.460;19.016;2023-11-18T05:43:32;100417.03;;;4.41;92.69
58757;BME280;44527;47.460;19.016;2023-11-18T05:46:43;100418.75;;;4.41;93.18
58757;BME280;44527;47.460;19.016;2023-11-18T05:49:49;100426.78;;;4.34;93.82
58757;BME280;44527;47.460;19.016;2023-11-18T05:52:53;100439.31;;;4.25;94.63
58757;BME280;44527;47.460;19.016;2023-11-18T05:55:57;100421.91;;;4.27;94.63
58757;BME280;44527;47.460;19.016;2023-11-18T05:59:00;100432.47;;;4.22;94.89
58757;BME280;44527;47.460;19.016;2023-11-18T06:02:06;100436.06;;;4.20;94.77
58757;BME280;44527;47.460;19.016;2023-11-18T06:05:11;100461.28;;;4.16;95.11
58757;BME280;44527;47.460;19.016;2023-11-18T06:08:14;100460.44;;;4.15;95.13
58757;BME280;44527;47.460;19.016;2023-11-18T06:11:17;100465.47;;;4.20;94.78
58757;BME280;44527;47.460;19.016;2023-11-18T06:14:22;100463.94;;;4.14;95.13
58757;BME280;44527;47.460;19.016;2023-11-18T06:17:25;100460.09;;;4.25;94.23
58757;BME280;44527;47.460;19.016;2023-11-18T06:20:27;100464.22;;;4.30;94.40
58757;BME280;44527;47.460;19.016;2023-11-18T06:23:30;100470.09;;;4.35;93.73
58757;BME280;44527;47.460;19.016;2023-11-18T06:26:35;100468.03;;;4.44;93.85
58757;BME280;44527;47.460;19.016;2023-11-18T06:29:38;100462.69;;;4.47;93.06
58757;BME280;44527;47.460;19.016;2023-11-18T06:32:42;100459.62;;;4.59;92.80
58757;BME280;44527;47.460;19.016;2023-11-18T06:35:45;100470.22;;;4.54;92.36
58757;BME280;44527;47.460;19.016;2023-11-18T06:38:49;100466.53;;;4.60;91.37
58757;BME280;44527;47.460;19.016;2023-11-18T06:41:52;100477.59;;;4.65;91.48
58757;BME280;44527;47.460;19.016;2023-11-18T06:44:55;100461.69;;;4.73;90.71
58757;BME280;44527;47.460;19.016;2023-11-18T06:47:58;100475.53;;;4.73;90.29
58757;BME280;44527;47.460;19.016;2023-11-18T06:51:01;100465.97;;;4.74;90.26
58757;BME280;44527;47.460;19.016;2023-11-18T06:54:05;100472.09;;;4.73;89.54
58757;BME280;44527;47.460;19.016;2023-11-18T06:57:12;100473.72;;;4.75;89.64
58757;BME280;44527;47.460;19.016;2023-11-18T07:00:16;100473.34;;;4.84;89.26
58757;BME280;44527;47.460;19.016;2023-11-18T07:03:19;100474.37;;;4.80;89.07
58757;BME280;44527;47.460;19.016;2023-11-18T07:06:22;100483.88;;;4.81;89.18
58757;BME280;44527;47.460;19.016;2023-11-18T07:09:25;100467.13;;;4.89;89.55
58757;BME280;44527;47.460;19.016;2023-11-18T07:12:28;100483.31;;;4.95;88.37
58757;BME280;44527;47.460;19.016;2023-11-18T07:15:31;100467.34;;;5.04;87.57
58757;BME280;44527;47.460;19.016;2023-11-18T07:18:33;100485.03;;;4.96;87.81
58757;BME280;44527;47.460;19.016;2023-11-18T07:21:37;100456.53;;;4.93;88.11
58757;BME280;44527;47.460;19.016;2023-11-18T07:24:39;100478.53;;;5.06;87.58
58757;BME280;44527;47.460;19.016;2023-11-18T07:27:43;100467.34;;;5.04;87.29
58757;BME280;44527;47.460;19.016;2023-11-18T07:30:46;100443.87;;;5.06;86.96
58757;BME280;44527;47.460;19.016;2023-11-18T07:33:49;100437.50;;;5.13;86.10
58757;BME280;44527;47.460;19.016;2023-11-18T07:36:53;100437.09;;;5.22;85.53
58757;BME280;44527;47.460;19.016;2023-11-18T07:39:58;100450.13;;;5.22;85.44
58757;BME280;44527;47.460;19.016;2023-11-18T07:43:03;100461.84;;;5.33;85.32
58757;BME280;44527;47.460;19.016;2023-11-18T07:46:06;100441.34;;;5.25;85.05
58757;BME280;44527;47.460;19.016;2023-11-18T07:49:11;100483.56;;;5.32;85.17
58757;BME280;44527;47.460;19.016;2023-11-18T07:52:14;100464.44;;;5.33;84.18
58757;BME280;44527;47.460;19.016;2023-11-18T07:55:17;100442.19;;;5.25;84.36
58757;BME280;44527;47.460;19.016;2023-11-18T07:58:20;100458.31;;;5.34;84.54
58757;BME280;44527;47.460;19.016;2023-11-18T08:01:26;100479.72;;;5.40;83.91
58757;BME280;44527;47.460;19.016;2023-11-18T08:04:29;100475.44;;;5.39;83.72
58757;BME280;44527;47.460;19.016;2023-11-18T08:07:32;100489.88;;;5.46;83.77
58757;BME280;44527;47.460;19.016;2023-11-18T08:10:35;100500.28;;;5.46;83.52
58757;BME280;44527;47.460;19.016;2023-11-18T08:13:40;100509.38;;;5.57;82.82
58757;BME280;44527;47.460;19.016;2023-11-18T08:16:45;100517.69;;;5.66;82.06
58757;BME280;44527;47.460;19.016;2023-11-18T08:19:48;100516.50;;;5.73;81.87
58757;BME280;44527;47.460;19.016;2023-11-18T08:22:51;100511.53;;;5.88;81.64
58757;BME280;44527;47.460;19.016;2023-11-18T08:25:54;100513.03;;;5.93;81.98
58757;BME280;44527;47.460;19.016;2023-11-18T08:28:57;100504.06;;;6.01;81.66
58757;BME280;44527;47.460;19.016;2023-11-18T08:32:02;100507.00;;;6.12;80.71
58757;BME280;44527;47.460;19.016;2023-11-18T08:35:06;100520.69;;;6.17;80.96
58757;BME280;44527;47.460;19.016;2023-11-18T08:38:12;100513.56;;;6.20;81.00
58757;BME280;44527;47.460;19.016;2023-11-18T08:41:15;100517.81;;;6.23;80.07
58757;BME280;44527;47.460;19.016;2023-11-18T08:44:18;100522.09;;;6.24;80.60
58757;BME280;44527;47.460;19.016;2023-11-18T08:47:27;100514.59;;;6.37;80.04
58757;BME280;44527;47.460;19.016;2023-11-18T08:50:29;100539.78;;;6.36;79.44
58757;BME280;44527;47.460;19.016;2023-11-18T08:53:34;100516.25;;;6.38;79.83
58757;BME280;44527;47.460;19.016;2023-11-18T08:56:43;100538.47;;;6.47;79.50
58757;BME280;44527;47.460;19.016;2023-11-18T08:59:46;100540.16;;;6.29;78.46
58757;BME280;44527;47.460;19.016;2023-11-18T09:02:49;100544.16;;;6.36;79.38
58757;BME280;44527;47.460;19.016;2023-11-18T09:05:58;100542.63;;;6.32;79.33
58757;BME280;44527;47.460;19.016;2023-11-18T09:09:01;100547.56;;;6.38;79.28
58757;BME280;44527;47.460;19.016;2023-11-18T09:12:08;100555.75;;;6.49;78.09
58757;BME280;44527;47.460;19.016;2023-11-18T09:15:11;100545.37;;;6.48;78.37
58757;BME280;44527;47.460;19.016;2023-11-18T09:18:20;100551.41;;;6.48;78.15
58757;BME280;44527;47.460;19.016;2023-11-18T09:21:24;100547.75;;;6.71;78.13
58757;BME280;44527;47.460;19.016;2023-11-18T09:24:34;100555.78;;;6.85;76.21
58757;BME280;44527;47.460;19.016;2023-11-18T09:27:39;100538.37;;;6.67;76.94
58757;BME280;44527;47.460;19.016;2023-11-18T09:30:43;100538.03;;;6.75;77.87
58757;BME280;44527;47.460;19.016;2023-11-18T09:33:52;100524.16;;;6.74;77.04
58757;BME280;44527;47.460;19.016;2023-11-18T09:36:55;100534.06;;;6.85;75.52
58757;BME280;44527;47.460;19.016;2023-11-18T09:39:58;100529.91;;;6.81;75.95
58757;BME280;44527;47.460;19.016;2023-11-18T09:43:01;100537.00;;;6.96;75.90
58757;BME280;44527;47.460;19.016;2023-11-18T09:46:22;100549.94;;;6.80;75.27
58757;BME280;44527;47.460;19.016;2023-11-18T09:49:27;100538.72;;;6.78;75.81
58757;BME280;44527;47.460;19.016;2023-11-18T09:52:46;100536.78;;;7.01;75.21
58757;BME280;44527;47.460;19.016;2023-11-18T09:56:07;100527.12;;;7.03;74.54
58757;BME280;44527;47.460;19.016;2023-11-18T09:59:37;100532.13;;;7.07;73.73
58757;BME280;44527;47.460;19.016;2023-11-18T10:02:47;100516.75;;;7.01;74.76
58757;BME280;44527;47.460;19.016;2023-11-18T10:05:51;100516.78;;;6.82;74.33
58757;BME280;44527;47.460;19.016;2023-11-18T10:08:57;100515.78;;;6.85;75.12
58757;BME280;44527;47.460;19.016;2023-11-18T10:12:00;100510.12;;;6.77;75.03
58757;BME280;44527;47.460;19.016;2023-11-18T10:15:08;100510.97;;;6.95;75.02
58757;BME280;44527;47.460;19.016;2023-11-18T10:18:14;100504.00;;;7.12;73.48
58757;BME280;44527;47.460;19.016;2023-11-18T10:21:34;100508.03;;;7.20;72.99
58757;BME280;44527;47.460;19.016;2023-11-18T10:24:45;100509.31;;;7.11;72.71
58757;BME280;44527;47.460;19.016;2023-11-18T10:27:48;100519.22;;;7.04;72.53
58757;BME280;44527;47.460;19.016;2023-11-18T10:30:51;100509.94;;;6.99;72.41
58757;BME280;44527;47.460;19.016;2023-11-18T10:33:54;100524.66;;;7.00;73.17
58757;BME280;44527;47.460;19.016;2023-11-18T10:37:03;100522.97;;;7.16;72.95
58757;BME280;44527;47.460;19.016;2023-11-18T10:40:14;100544.50;;;7.21;72.88
58757;BME280;44527;47.460;19.016;2023-11-18T10:43:18;100524.00;;;7.13;71.78
58757;BME280;44527;47.460;19.016;2023-11-18T10:46:20;100519.38;;;7.19;72.86
58757;BME280;44527;47.460;19.016;2023-11-18T10:49:29;100511.72;;;7.33;71.48
58757;BME280;44527;47.460;19.016;2023-11-18T10:52:40;100519.16;;;7.23;70.81
58757;BME280;44527;47.460;19.016;2023-11-18T10:55:44;100538.09;;;7.09;71.44
58757;BME280;44527;47.460;19.016;2023-11-18T10:58:47;100545.13;;;7.26;71.54
58757;BME280;44527;47.460;19.016;2023-11-18T11:01:51;100559.84;;;7.27;71.36
58757;BME280;44527;47.460;19.016;2023-11-18T11:04:55;100532.37;;;7.20;71.07
58757;BME280;44527;47.460;19.016;2023-11-18T11:08:01;100551.78;;;7.14;71.04
58757;BME280;44527;47.460;19.016;2023-11-18T11:11:07;100573.34;;;7.18;72.18
58757;BME280;44527;47.460;19.016;2023-11-18T11:14:12;100577.78;;;7.16;70.88
58757;BME280;44527;47.460;19.016;2023-11-18T11:17:22;100569.59;;;7.24;71.49
58757;BME280;44527;47.460;19.016;2023-11-18T11:20:34;100583.06;;;7.33;70.54
58757;BME280;44527;47.460;19.016;2023-11-18T11:23:54;100571.78;;;7.33;71.51
58757;BME280;44527;47.460;19.016;2023-11-18T11:27:19;100562.63;;;7.59;70.81
58757;BME280;44527;47.460;19.016;2023-11-18T11:31:04;100573.34;;;7.72;69.77
58757;BME280;44527;47.460;19.016;2023-11-18T11:34:20;100576.84;;;7.88;69.54
58757;BME280;44527;47.460;19.016;2023-11-18T11:37:27;100583.22;;;7.82;69.94
58757;BME280;44527;47.460;19.016;2023-11-18T11:40:33;100591.53;;;7.73;69.82
58757;BME280;44527;47.460;19.016;2023-11-18T11:43:40;100605.84;;;7.66;69.04
58757;BME280;44527;47.460;19.016;2023-11-18T11:46:43;100599.00;;;7.64;69.30
58757;BME280;44527;47.460;19.016;2023-11-18T11:49:54;100608.81;;;7.58;71.02
58757;BME280;44527;47.460;19.016;2023-11-18T11:53:07;100624.47;;;7.58;69.87
58757;BME280;44527;47.460;19.016;2023-11-18T11:56:11;100625.75;;;7.69;70.49
58757;BME280;44527;47.460;19.016;2023-11-18T11:59:17;100637.72;;;7.73;69.64
58757;BME280;44527;47.460;19.016;2023-11-18T12:02:24;100648.81;;;7.78;68.87
58757;BME280;44527;47.460;19.016;2023-11-18T12:05:29;100639.00;;;7.64;69.36
58757;BME280;44527;47.460;19.016;2023-11-18T12:08:36;100641.25;;;7.72;69.37
58757;BME280;44527;47.460;19.016;2023-11-18T12:11:43;100656.56;;;7.43;69.11
58757;BME280;44527;47.460;19.016;2023-11-18T12:14:50;100662.91;;;7.20;70.12
58757;BME280;44527;47.460;19.016;2023-11-18T12:21:02;100659.16;;;7.26;70.52
58757;BME280;44527;47.460;19.016;2023-11-18T12:24:15;100626.94;;;7.25;68.85
58757;BME280;44527;47.460;19.016;2023-11-18T12:30:44;100658.88;;;7.32;69.11
58757;BME280;44527;47.460;19.016;2023-11-18T12:37:17;100658.56;;;7.19;68.79
58757;BME280;44527;47.460;19.016;2023-11-18T12:44:40;100650.06;;;6.97;69.39
58757;BME280;44527;47.460;19.016;2023-11-18T12:47:24;100636.59;;;6.87;69.84
58757;BME280;44527;47.460;19.016;2023-11-18T12:50:32;100623.41;;;6.90;69.94
58757;BME280;44527;47.460;19.016;2023-11-18T12:53:38;100640.75;;;6.72;70.64
58757;BME280;44527;47.460;19.016;2023-11-18T12:56:41;100628.62;;;6.71;71.29
58757;BME280;44527;47.460;19.016;2023-11-18T12:59:49;100645.78;;;6.77;72.05
58757;BME280;44527;47.460;19.016;2023-11-18T13:02:57;100660.78;;;6.90;70.79
58757;BME280;44527;47.460;19.016;2023-11-18T13:06:00;100663.94;;;6.97;69.75
58757;BME280;44527;47.460;19.016;2023-11-18T13:09:03;100681.78;;;6.87;70.53
58757;BME280;44527;47.460;19.016;2023-11-18T13:12:13;100670.50;;;6.87;70.07
58757;BME280;44527;47.460;19.016;2023-11-18T13:15:20;100678.75;;;6.97;69.98
58757;BME280;44527;47.460;19.016;2023-11-18T13:18:26;100681.78;;;6.87;70.21
58757;BME280;44527;47.460;19.016;2023-11-18T13:21:29;100683.41;;;6.71;71.02
58757;BME280;44527;47.460;19.016;2023-11-18T13:24:33;100669.84;;;6.63;71.90
58757;BME280;44527;47.460;19.016;2023-11-18T13:27:40;100681.97;;;6.64;72.11
58757;BME280;44527;47.460;19.016;2023-11-18T13:30:43;100693.19;;;6.66;71.82
58757;BME280;44527;47.460;19.016;2023-11-18T13:33:48;100686.59;;;6.78;71.91
58757;BME280;44527;47.460;19.016;2023-11-18T13:36:53;100696.88;;;6.81;72.00
58757;BME280;44527;47.460;19.016;2023-11-18T13:39:57;100695.34;;;6.77;72.85
58757;BME280;44527;47.460;19.016;2023-11-18T13:43:02;100703.44;;;6.71;73.52
58757;BME280;44527;47.460;19.016;2023-11-18T13:46:10;100703.47;;;6.69;72.83
58757;BME280;44527;47.460;19.016;2023-11-18T13:49:14;100708.66;;;6.71;72.36
58757;BME280;44527;47.460;19.016;2023-11-18T13:52:18;100704.41;;;6.68;72.52
58757;BME280;44527;47.460;19.016;2023-11-18T13:55:21;100716.75;;;6.64;73.06
58757;BME280;44527;47.460;19.016;2023-11-18T13:58:31;100721.56;;;6.53;73.33
58757;BME280;44527;47.460;19.016;2023-11-18T14:01:33;100722.38;;;6.55;73.21
58757;BME280;44527;47.460;19.016;2023-11-18T14:04:36;100702.53;;;6.51;73.30
58757;BME280;44527;47.460;19.016;2023-11-18T14:07:39;100725.37;;;6.46;73.53
58757;BME280;44527;47.460;19.016;2023-11-18T14:10:42;100728.22;;;6.40;73.32
58757;BME280;44527;47.460;19.016;2023-11-18T14:13:49;100721.56;;;6.33;74.05
58757;BME280;44527;47.460;19.016;2023-11-18T14:16:51;100726.91;;;6.30;74.40
58757;BME280;44527;47.460;19.016;2023-11-18T14:20:03;100734.97;;;6.24;74.92
58757;BME280;44527;47.460;19.016;2023-11-18T14:23:06;100738.56;;;6.21;74.21
58757;BME280;44527;47.460;19.016;2023-11-18T14:26:11;100725.59;;;6.19;74.24
58757;BME280;44527;47.460;19.016;2023-11-18T14:29:14;100730.53;;;6.05;74.79
58757;BME280;44527;47.460;19.016;2023-11-18T14:32:16;100732.37;;;6.03;74.64
58757;BME280;44527;47.460;19.016;2023-11-18T14:35:19;100744.66;;;5.99;74.70
58757;BME280;44527;47.460;19.016;2023-11-18T14:38:23;100728.59;;;5.88;74.43
58757;BME280;44527;47.460;19.016;2023-11-18T14:41:25;100733.25;;;5.80;74.84
58757;BME280;44527;47.460;19.016;2023-11-18T14:44:31;100751.63;;;5.77;74.62
58757;BME280;44527;47.460;19.016;2023-11-18T14:47:33;100755.91;;;5.78;75.02
58757;BME280;44527;47.460;19.016;2023-11-18T14:50:37;100754.28;;;5.75;75.09
58757;BME280;44527;47.460;19.016;2023-11-18T14:53:41;100746.59;;;5.72;75.34
58757;BME280;44527;47.460;19.016;2023-11-18T14:56:45;100755.31;;;5.71;75.29
58757;BME280;44527;47.460;19.016;2023-11-18T14:59:51;100763.19;;;5.70;75.34
58757;BME280;44527;47.460;19.016;2023-11-18T15:02:55;100762.47;;;5.66;74.86
58757;BME280;44527;47.460;19.016;2023-11-18T15:06:02;100765.34;;;5.59;75.37
58757;BME280;44527;47.460;19.016;2023-11-18T15:09:05;100762.06;;;5.53;75.19
58757;BME280;44527;47.460;19.016;2023-11-18T15:12:11;100772.00;;;5.44;75.30
58757;BME280;44527;47.460;19.016;2023-11-18T15:15:14;100779.16;;;5.39;75.49
58757;BME280;44527;47.460;19.016;2023-11-18T15:18:21;100769.75;;;5.35;75.42
58757;BME280;44527;47.460;19.016;2023-11-18T15:21:24;100770.78;;;5.30;75.61
58757;BME280;44527;47.460;19.016;2023-11-18T15:24:27;100758.81;;;5.25;75.45
58757;BME280;44527;47.460;19.016;2023-11-18T15:27:29;100765.19;;;5.18;75.52
58757;BME280;44527;47.460;19.016;2023-11-18T15:30:39;100765.22;;;5.16;75.45
58757;BME280;44527;47.460;19.016;2023-11-18T15:33:42;100779.19;;;5.14;75.92
58757;BME280;44527;47.460;19.016;2023-11-18T15:36:47;100773.22;;;5.12;75.94
58757;BME280;44527;47.460;19.016;2023-11-18T15:39:50;100793.31;;;5.06;76.23
58757;BME280;44527;47.460;19.016;2023-11-18T15:42:53;100796.03;;;5.03;76.37
58757;BME280;44527;47.460;19.016;2023-11-18T15:45:56;100805.59;;;5.03;76.82
58757;BME280;44527;47.460;19.016;2023-11-18T15:49:01;100807.41;;;5.01;76.11
58757;BME280;44527;47.460;19.016;2023-11-18T15:52:04;100804.75;;;5.02;76.01
58757;BME280;44527;47.460;19.016;2023-11-18T15:55:10;100796.78;;;5.07;76.10
58757;BME280;44527;47.460;19.016;2023-11-18T15:58:12;100795.19;;;5.03;76.19
58757;BME280;44527;47.460;19.016;2023-11-18T16:01:15;100801.88;;;5.10;76.29
58757;BME280;44527;47.460;19.016;2023-11-18T16:04:18;100787.50;;;5.00;76.42
58757;BME280;44527;47.460;19.016;2023-11-18T16:07:21;100793.69;;;4.96;76.14
58757;BME280;44527;47.460;19.016;2023-11-18T16:10:26;100808.44;;;4.97;76.66
58757;BME280;44527;47.460;19.016;2023-11-18T16:13:28;100811.88;;;4.97;76.67
58757;BME280;44527;47.460;19.016;2023-11-18T16:16:31;100808.31;;;5.00;76.74
58757;BME280;44527;47.460;19.016;2023-11-18T16:19:34;100815.16;;;5.02;76.66
58757;BME280;44527;47.460;19.016;2023-11-18T16:22:36;100808.34;;;4.98;76.84
58757;BME280;44527;47.460;19.016;2023-11-18T16:25:40;100816.03;;;5.01;77.22
58757;BME280;44527;47.460;19.016;2023-11-18T16:28:43;100824.47;;;5.08;76.80
58757;BME280;44527;47.460;19.016;2023-11-18T16:31:46;100833.19;;;5.07;76.65
58757;BME280;44527;47.460;19.016;2023-11-18T16:34:51;100840.84;;;5.12;76.71
58757;BME280;44527;47.460;19.016;2023-11-18T16:37:53;100840.16;;;5.06;76.98
58757;BME280;44527;47.460;19.016;2023-11-18T16:40:57;100846.22;;;5.07;77.21